createdAt,value
2023-03-21T00:02:17.384Z,9.33
2023-03-21T00:06:22.279Z,8.67
2023-03-21T00:10:40.522Z,7.50
2023-03-21T00:14:51.499Z,8.67
2023-03-21T00:18:55.377Z,12.73
2023-03-21T00:22:55.785Z,14.17
2023-03-21T00:27:10.700Z,9.90
2023-03-21T00:31:19.745Z,11.03
2023-03-21T00:35:53.702Z,11.07
2023-03-21T00:39:41.594Z,11.00
2023-03-21T00:43:44.584Z,13.03
2023-03-21T00:47:45.688Z,13.03
2023-03-21T00:51:46.854Z,12.23
2023-03-21T00:55:48.109Z,17.13
2023-03-21T00:59:51.271Z,15.93
2023-03-21T01:04:04.980Z,15.53
2023-03-21T01:08:17.077Z,15.87
2023-03-21T01:12:24.401Z,11.70
2023-03-21T01:16:28.341Z,11.23
2023-03-21T01:20:29.045Z,12.37
2023-03-21T01:24:29.953Z,16.30
2023-03-21T01:28:32.883Z,13.77
2023-03-21T01:32:36.424Z,10.77
2023-03-21T01:36:37.055Z,9.97
2023-03-21T01:40:42.349Z,9.93
2023-03-21T01:45:03.805Z,10.03
2023-03-21T01:49:35.076Z,10.73
2023-03-21T01:53:51.310Z,13.83
2023-03-21T01:58:05.928Z,8.80
2023-03-21T02:02:33.354Z,9.87
2023-03-21T02:07:12.715Z,16.53
2023-03-21T02:11:19.922Z,14.33
2023-03-21T02:15:20.745Z,14.00
2023-03-21T02:20:39.925Z,9.63
2023-03-21T02:25:32.374Z,8.57
2023-03-21T02:30:28.771Z,9.07
2023-03-21T02:35:02.938Z,7.53
2023-03-21T02:39:18.118Z,10.40
2023-03-21T02:43:30.676Z,9.10
2023-03-21T02:47:38.895Z,7.33
2023-03-21T02:51:44.038Z,7.07
2023-03-21T02:55:49.301Z,6.53
2023-03-21T02:59:56.877Z,6.83
2023-03-21T03:04:06.582Z,9.37
2023-03-21T03:08:56.335Z,10.90
2023-03-21T03:13:22.083Z,9.10
2023-03-21T03:17:44.221Z,12.27
2023-03-21T03:21:52.763Z,7.10
2023-03-21T03:26:00.901Z,8.27
2023-03-21T03:30:08.040Z,7.33
2023-03-21T03:34:18.104Z,6.27
2023-03-21T03:38:23.954Z,8.33
2023-03-21T03:42:36.581Z,7.13
2023-03-21T03:47:04.934Z,7.43
2023-03-21T03:51:13.816Z,7.77
2023-03-21T03:55:41.899Z,7.10
2023-03-21T03:59:49.477Z,8.67
2023-03-21T04:04:12.264Z,6.43
2023-03-21T04:08:13.646Z,6.60
2023-03-21T04:12:17.578Z,10.03
2023-03-21T04:16:35.836Z,8.93
2023-03-21T04:20:40.490Z,8.10
2023-03-21T04:24:43.025Z,7.10
2023-03-21T04:28:43.502Z,8.63
2023-03-21T04:33:01.284Z,8.53
2023-03-21T04:37:11.208Z,7.53
2023-03-21T04:41:13.981Z,7.17
2023-03-21T04:45:15.789Z,7.53
2023-03-21T04:49:18.693Z,6.27
2023-03-21T04:53:22.559Z,8.37
2023-03-21T04:57:23.383Z,12.33
2023-03-21T05:01:23.732Z,10.77
2023-03-21T05:05:24.119Z,13.50
2023-03-21T05:09:28.688Z,14.03
2023-03-21T05:13:28.946Z,7.57
2023-03-21T05:17:29.924Z,9.93
2023-03-21T05:21:34.432Z,7.43
2023-03-21T05:25:38.423Z,7.63
2023-03-21T05:29:49.875Z,7.67
2023-03-21T05:33:51.594Z,8.00
2023-03-21T05:37:53.999Z,9.47
2023-03-21T05:41:59.404Z,11.73
2023-03-21T05:46:01.148Z,10.03
2023-03-21T05:50:04.053Z,7.37
2023-03-21T05:54:06.567Z,11.47
2023-03-21T05:58:10.850Z,12.63
2023-03-21T06:02:13.279Z,10.07
2023-03-21T06:06:14.498Z,14.97
2023-03-21T06:10:25.045Z,12.87
2023-03-21T06:14:28.966Z,9.80
2023-03-21T06:18:43.734Z,11.17
2023-03-21T06:22:54.641Z,7.70
2023-03-21T06:26:56.229Z,11.40
2023-03-21T06:31:03.136Z,12.10
2023-03-21T06:35:05.241Z,14.87
2023-03-21T06:39:11.084Z,10.13
2023-03-21T06:43:13.895Z,8.57
2023-03-21T06:47:16.933Z,8.87
2023-03-21T06:51:20.117Z,8.37
2023-03-21T06:55:34.652Z,10.87
2023-03-21T06:59:36.288Z,11.43
2023-03-21T07:04:00.994Z,11.60
2023-03-21T07:08:03.268Z,9.53
2023-03-21T07:12:07.260Z,7.20
2023-03-21T07:16:25.211Z,8.33
2023-03-21T07:20:29.052Z,13.23
2023-03-21T07:24:29.654Z,12.27
2023-03-21T07:28:32.103Z,8.83
2023-03-21T07:32:35.653Z,11.37
2023-03-21T07:36:40.663Z,16.47
2023-03-21T07:40:40.979Z,34.90
2023-03-21T07:44:42.834Z,12.97
2023-03-21T07:48:43.351Z,11.07
2023-03-21T07:52:46.698Z,8.00
2023-03-21T07:56:49.933Z,17.70
2023-03-21T08:00:53.979Z,7.03
2023-03-21T08:04:58.550Z,10.02
2023-03-21T08:09:03.927Z,6.22
2023-03-21T08:13:04.266Z,7.87
2023-03-21T08:17:04.774Z,7.82
2023-03-21T08:21:05.357Z,6.43
2023-03-21T08:25:14.059Z,6.25
2023-03-21T08:29:14.906Z,8.95
2023-03-21T08:33:16.161Z,5.47
2023-03-21T08:37:16.462Z,7.72
2023-03-21T08:41:20.892Z,5.80
2023-03-21T08:45:22.884Z,6.25
2023-03-21T08:49:23.101Z,11.15
2023-03-21T08:53:26.823Z,9.50
2023-03-21T08:57:29.908Z,6.40
2023-03-21T09:01:31.090Z,8.13
2023-03-21T09:05:32.015Z,4.95
2023-03-21T09:09:32.704Z,6.13
2023-03-21T09:13:35.578Z,6.13
2023-03-21T09:17:36.535Z,6.63
2023-03-21T09:21:37.019Z,5.38
2023-03-21T09:25:37.747Z,4.25
2023-03-21T09:29:40.945Z,6.75
2023-03-21T09:33:42.605Z,5.07
2023-03-21T09:37:43.143Z,4.93
2023-03-21T09:42:15.333Z,4.68
2023-03-21T09:46:29.738Z,4.78
2023-03-21T09:50:36.634Z,5.43
2023-03-21T09:54:43.131Z,5.43
2023-03-21T09:58:47.900Z,7.07
2023-03-21T10:02:55.506Z,5.03
2023-03-21T10:07:04.303Z,4.45
2023-03-21T10:11:13.386Z,3.50
2023-03-21T10:15:20.603Z,3.97
2023-03-21T10:19:23.823Z,4.95
2023-03-21T10:23:30.834Z,4.18
2023-03-21T10:27:31.237Z,4.82
2023-03-21T10:31:33.656Z,3.20
2023-03-21T10:35:40.335Z,4.95
2023-03-21T10:39:45.705Z,5.70
2023-03-21T10:43:51.420Z,6.45
2023-03-21T10:47:55.814Z,4.05
2023-03-21T10:52:04.247Z,4.40
2023-03-21T10:56:10.815Z,4.75
2023-03-21T11:00:23.186Z,3.95
2023-03-21T11:04:34.241Z,4.38
2023-03-21T11:08:46.684Z,4.95
2023-03-21T11:12:55.623Z,5.45
2023-03-21T11:17:00.904Z,4.82
2023-03-21T11:21:07.864Z,4.88
2023-03-21T11:25:23.773Z,5.00
2023-03-21T11:29:36.475Z,4.63
2023-03-21T11:33:41.292Z,7.28
2023-03-21T11:37:47.959Z,3.08
2023-03-21T11:41:54.837Z,3.95
2023-03-21T11:46:01.583Z,3.88
2023-03-21T11:50:05.378Z,3.65
2023-03-21T11:54:16.035Z,5.10
2023-03-21T11:58:40.322Z,5.65
2023-03-21T12:03:11.437Z,3.95
2023-03-21T12:07:39.738Z,4.53
2023-03-21T12:12:09.178Z,2.75
2023-03-21T12:16:36.490Z,5.32
2023-03-21T12:20:45.398Z,3.25
2023-03-21T12:24:57.101Z,3.28
2023-03-21T12:29:51.333Z,3.95
2023-03-21T12:34:21.797Z,5.63
2023-03-21T12:38:31.554Z,3.20
2023-03-21T12:43:08.026Z,2.40
2023-03-21T12:47:17.018Z,3.90
2023-03-21T12:51:27.146Z,5.82
2023-03-21T12:55:39.787Z,3.88
2023-03-21T12:59:59.351Z,2.95
2023-03-21T13:04:36.828Z,4.35
2023-03-21T13:08:49.686Z,4.85
2023-03-21T13:13:15.768Z,3.60
2023-03-21T13:17:30.249Z,5.32
2023-03-21T13:21:49.296Z,5.30
2023-03-21T13:25:56.741Z,3.47
2023-03-21T13:30:09.101Z,4.93
2023-03-21T13:34:13.520Z,6.43
2023-03-21T13:38:22.329Z,4.22
2023-03-21T13:42:36.101Z,3.00
2023-03-21T13:46:53.895Z,4.93
2023-03-21T13:51:04.100Z,6.03
2023-03-21T13:55:18.559Z,5.57
2023-03-21T13:59:44.800Z,3.95
2023-03-21T14:03:51.270Z,3.35
2023-03-21T14:08:12.703Z,3.75
2023-03-21T14:12:21.774Z,4.72
2023-03-21T14:16:32.841Z,3.60
2023-03-21T14:20:38.447Z,2.88
2023-03-21T14:24:39.107Z,4.47
2023-03-21T14:28:42.757Z,2.70
2023-03-21T14:32:47.695Z,4.93
2023-03-21T14:36:57.736Z,4.20
2023-03-21T14:41:00.067Z,2.10
2023-03-21T14:45:02.217Z,3.88
2023-03-21T14:49:22.014Z,5.45
2023-03-21T14:53:25.960Z,4.57
2023-03-21T14:57:37.061Z,4.47
2023-03-21T15:01:46.752Z,3.17
2023-03-21T15:05:55.945Z,4.90
2023-03-21T15:10:05.207Z,5.07
2023-03-21T15:14:10.676Z,6.35
2023-03-21T15:18:17.686Z,3.45
2023-03-21T15:22:33.236Z,4.35
2023-03-21T15:26:34.793Z,4.30
2023-03-21T15:30:36.803Z,4.32
2023-03-21T15:34:37.262Z,3.03
2023-03-21T15:38:45.310Z,3.30
2023-03-21T15:42:45.949Z,5.32
2023-03-21T15:46:49.808Z,3.22
2023-03-21T15:50:59.891Z,2.28
2023-03-21T15:55:04.402Z,4.50
2023-03-21T15:59:35.284Z,4.22
2023-03-21T16:04:16.533Z,2.35
2023-03-21T16:08:32.635Z,3.63
2023-03-21T16:12:42.164Z,4.50
2023-03-21T16:16:49.505Z,2.55
2023-03-21T16:20:50.430Z,2.47
2023-03-21T16:24:54.992Z,3.45
2023-03-21T16:28:59.104Z,3.05
2023-03-21T16:32:59.841Z,2.83
2023-03-21T16:37:00.196Z,15.35
2023-03-21T16:41:01.070Z,3.03
2023-03-21T16:45:04.097Z,3.50
2023-03-21T16:49:04.733Z,6.25
2023-03-21T16:53:06.037Z,6.05
2023-03-21T16:57:08.896Z,4.05
2023-03-21T17:01:19.299Z,2.38
2023-03-21T17:05:20.000Z,3.97
2023-03-21T17:09:27.448Z,2.08
2023-03-21T17:13:28.339Z,4.13
2023-03-21T17:17:31.158Z,3.50
2023-03-21T17:21:32.690Z,2.20
2023-03-21T17:25:33.121Z,2.97
2023-03-21T17:29:33.403Z,4.15
2023-03-21T17:33:36.804Z,2.78
2023-03-21T17:37:43.199Z,5.30
2023-03-21T17:41:44.395Z,6.55
2023-03-21T17:45:45.055Z,2.88
2023-03-21T17:49:47.849Z,5.90
2023-03-21T17:53:51.023Z,3.55
2023-03-21T17:57:54.552Z,5.57
2023-03-21T18:01:54.863Z,6.28
2023-03-21T18:05:57.940Z,6.32
2023-03-21T18:09:58.340Z,8.27
2023-03-21T18:14:14.359Z,4.30
2023-03-21T18:18:17.283Z,5.22
2023-03-21T18:22:21.103Z,4.35
2023-03-21T18:26:25.988Z,6.25
2023-03-21T18:30:50.013Z,6.13
2023-03-21T18:34:53.434Z,8.88
2023-03-21T18:39:00.007Z,15.35
2023-03-21T18:47:25.979Z,9.27
2023-03-21T18:51:30.505Z,7.85
2023-03-21T18:55:45.819Z,8.07
2023-03-21T18:59:52.216Z,8.32
2023-03-21T19:04:20.000Z,8.48
2023-03-21T19:08:24.202Z,6.25
2023-03-21T19:12:31.650Z,6.22
2023-03-21T19:16:56.234Z,6.28
2023-03-21T19:21:01.314Z,5.70
2023-03-21T19:25:05.492Z,7.37
2023-03-21T19:29:15.382Z,10.03
2023-03-21T19:33:18.151Z,6.40
2023-03-21T19:37:20.647Z,6.83
2023-03-21T19:41:24.628Z,10.40
2023-03-21T19:45:34.107Z,14.90
2023-03-21T19:50:30.794Z,10.43
2023-03-21T19:54:09.974Z,12.90
2023-03-21T19:58:16.980Z,9.27
2023-03-21T20:02:34.921Z,7.83
2023-03-21T20:06:38.643Z,6.13
2023-03-21T20:10:39.933Z,9.10
2023-03-21T20:14:46.421Z,8.57
2023-03-21T20:18:50.247Z,14.50
2023-03-21T20:23:06.388Z,12.07
2023-03-21T20:27:09.815Z,11.80
2023-03-21T20:31:10.698Z,12.47
2023-03-21T20:35:31.300Z,20.63
2023-03-21T20:39:38.508Z,13.00
2023-03-21T20:48:00.594Z,11.10
2023-03-21T20:56:31.191Z,11.67
2023-03-21T21:00:32.190Z,10.97
2023-03-21T21:05:12.176Z,13.40
2023-03-21T21:08:59.457Z,13.00
2023-03-21T21:13:00.488Z,9.63
2023-03-21T21:17:07.783Z,8.20
2023-03-21T21:21:18.039Z,5.80
2023-03-21T21:25:24.265Z,7.47
2023-03-21T21:29:28.633Z,11.67
2023-03-21T21:33:29.528Z,10.17
2023-03-21T21:37:34.065Z,8.60
2023-03-21T21:41:37.724Z,7.77
2023-03-21T21:45:38.492Z,5.63
2023-03-21T21:49:39.557Z,10.47
2023-03-21T21:53:41.074Z,6.60
2023-03-21T21:57:44.077Z,9.33
2023-03-21T22:01:46.795Z,8.77
2023-03-21T22:05:47.889Z,6.73
2023-03-21T22:09:49.529Z,9.60
2023-03-21T22:13:52.483Z,8.50
2023-03-21T22:17:53.786Z,10.43
2023-03-21T22:21:54.485Z,8.10
2023-03-21T22:25:57.572Z,11.83
2023-03-21T22:30:04.676Z,6.00
2023-03-21T22:34:06.380Z,10.53
2023-03-21T22:38:10.606Z,8.60
2023-03-21T22:42:10.953Z,7.63
2023-03-21T22:46:13.982Z,9.80
2023-03-21T22:50:14.717Z,9.93
2023-03-21T22:54:15.046Z,9.37
2023-03-21T22:58:15.968Z,10.07
2023-03-21T23:02:23.680Z,17.63
2023-03-21T23:06:27.622Z,8.57
2023-03-21T23:10:31.747Z,8.70
2023-03-21T23:14:34.086Z,7.73
2023-03-21T23:18:40.461Z,8.73
2023-03-21T23:22:43.361Z,6.43
2023-03-21T23:26:44.429Z,6.87
2023-03-21T23:30:45.358Z,6.87
2023-03-21T23:34:50.524Z,9.10
2023-03-21T23:38:51.020Z,5.57
2023-03-21T23:42:51.714Z,5.53
2023-03-21T23:46:52.462Z,8.73
2023-03-21T23:50:55.775Z,7.33
2023-03-21T23:54:56.331Z,6.07
2023-03-21T23:58:57.022Z,6.83
